createdAt,value
2019-01-22T00:00:24.352Z,75.50
2019-01-22T00:02:53.287Z,80.50
2019-01-22T00:05:22.041Z,68.57
2019-01-22T00:07:51.151Z,74.93
2019-01-22T00:10:20.019Z,73.00
2019-01-22T00:12:48.830Z,65.07
2019-01-22T00:15:17.584Z,66.13
2019-01-22T00:17:46.742Z,66.53
2019-01-22T00:20:16.166Z,71.50
2019-01-22T00:22:45.347Z,69.70
2019-01-22T00:25:15.308Z,76.97
2019-01-22T00:27:44.440Z,66.83
2019-01-22T00:30:19.101Z,78.67
2019-01-22T00:32:47.951Z,87.43
2019-01-22T00:35:17.222Z,91.93
2019-01-22T00:37:46.119Z,96.17
2019-01-22T00:40:17.692Z,86.20
2019-01-22T00:42:46.776Z,75.73
2019-01-22T00:45:15.684Z,66.60
2019-01-22T00:47:44.543Z,63.63
2019-01-22T00:50:16.690Z,71.23
2019-01-22T00:52:45.885Z,68.70
2019-01-22T00:55:18.095Z,78.33
2019-01-22T00:57:46.938Z,74.43
2019-01-22T01:00:24.795Z,79.30
2019-01-22T01:02:53.581Z,78.57
2019-01-22T01:05:23.083Z,69.33
2019-01-22T01:07:52.278Z,67.53
2019-01-22T01:10:21.782Z,69.70
2019-01-22T01:12:51.068Z,71.53
2019-01-22T01:15:20.144Z,83.13
2019-01-22T01:17:49.335Z,67.73
2019-01-22T01:20:20.399Z,70.67
2019-01-22T01:22:49.358Z,70.10
2019-01-22T01:25:20.818Z,66.17
2019-01-22T01:27:49.688Z,64.13
2019-01-22T01:30:21.330Z,74.90
2019-01-22T01:32:50.888Z,64.53
2019-01-22T01:35:19.581Z,70.23
2019-01-22T01:37:48.357Z,69.33
2019-01-22T01:40:18.508Z,69.43
2019-01-22T01:42:47.340Z,62.60
2019-01-22T01:45:17.745Z,63.33
2019-01-22T01:47:46.484Z,64.63
2019-01-22T01:50:17.250Z,62.83
2019-01-22T01:52:46.265Z,59.60
2019-01-22T01:55:16.349Z,72.07
2019-01-22T01:57:45.144Z,63.27
2019-01-22T02:00:16.853Z,67.00
2019-01-22T02:02:46.014Z,56.73
2019-01-22T02:05:14.998Z,70.23
2019-01-22T02:07:43.810Z,64.27
2019-01-22T02:10:16.049Z,60.10
2019-01-22T02:12:50.750Z,64.23
2019-01-22T02:15:34.142Z,58.37
2019-01-22T02:18:38.911Z,63.03
2019-01-22T02:21:13.669Z,55.50
2019-01-22T02:23:45.411Z,65.03
2019-01-22T02:26:22.948Z,54.40
2019-01-22T02:28:57.310Z,63.37
2019-01-22T02:31:48.530Z,60.30
2019-01-22T02:34:23.405Z,58.50
2019-01-22T02:37:03.810Z,56.30
2019-01-22T02:39:53.323Z,59.20
2019-01-22T02:42:25.246Z,59.77
2019-01-22T02:45:05.988Z,56.90
2019-01-22T02:47:44.265Z,54.53
2019-01-22T02:50:24.428Z,60.57
2019-01-22T02:52:56.272Z,67.13
2019-01-22T02:55:28.480Z,58.03
2019-01-22T02:58:15.000Z,57.07
2019-01-22T03:00:55.402Z,63.93
2019-01-22T03:03:36.179Z,59.93
2019-01-22T03:06:27.604Z,61.67
2019-01-22T03:09:02.231Z,60.03
2019-01-22T03:11:51.645Z,56.47
2019-01-22T03:14:43.242Z,70.07
2019-01-22T03:17:33.027Z,48.70
2019-01-22T03:20:10.562Z,58.63
2019-01-22T03:22:42.488Z,62.13
2019-01-22T03:25:25.616Z,57.20
2019-01-22T03:28:00.508Z,65.87
2019-01-22T03:30:44.156Z,59.87
2019-01-22T03:33:19.712Z,62.97
2019-01-22T03:35:54.408Z,55.60
2019-01-22T03:38:38.227Z,58.43
2019-01-22T03:41:21.907Z,53.00
2019-01-22T03:44:09.944Z,64.10
2019-01-22T03:47:00.925Z,56.30
2019-01-22T03:49:33.151Z,59.13
2019-01-22T03:52:10.550Z,57.73
2019-01-22T03:55:03.123Z,57.77
2019-01-22T03:57:34.870Z,59.00
2019-01-22T04:00:09.274Z,53.37
2019-01-22T04:02:38.037Z,57.57
2019-01-22T04:05:08.683Z,55.40
2019-01-22T04:07:37.924Z,56.77
2019-01-22T04:10:10.129Z,62.83
2019-01-22T04:12:38.881Z,55.70
2019-01-22T04:15:10.690Z,55.10
2019-01-22T04:17:39.882Z,55.07
2019-01-22T04:20:11.716Z,49.57
2019-01-22T04:22:40.783Z,59.53
2019-01-22T04:25:21.517Z,52.13
2019-01-22T04:27:55.987Z,62.43
2019-01-22T04:30:42.489Z,60.43
2019-01-22T04:33:30.480Z,58.97
2019-01-22T04:36:18.886Z,57.53
2019-01-22T04:38:56.725Z,52.17
2019-01-22T04:41:31.346Z,52.77
2019-01-22T04:44:19.337Z,56.77
2019-01-22T04:47:20.201Z,55.83
2019-01-22T04:50:03.847Z,58.20
2019-01-22T04:52:47.964Z,60.57
2019-01-22T04:55:37.544Z,59.90
2019-01-22T04:58:09.327Z,56.50
2019-01-22T05:00:46.631Z,59.40
2019-01-22T05:03:18.859Z,59.67
2019-01-22T05:06:20.458Z,52.60
2019-01-22T05:09:11.166Z,55.60
2019-01-22T05:12:02.116Z,53.43
2019-01-22T05:14:39.573Z,57.20
2019-01-22T05:17:17.406Z,58.33
2019-01-22T05:19:51.992Z,57.67
2019-01-22T05:22:26.582Z,59.30
2019-01-22T05:25:07.037Z,63.30
2019-01-22T05:27:47.879Z,53.10
2019-01-22T05:30:29.338Z,57.13
2019-01-22T05:33:29.465Z,58.80
2019-01-22T05:36:18.984Z,53.40
2019-01-22T05:38:50.808Z,50.50
2019-01-22T05:41:37.837Z,60.23
2019-01-22T05:44:21.156Z,56.20
2019-01-22T05:47:10.627Z,57.67
2019-01-22T05:50:06.415Z,55.10
2019-01-22T05:53:04.140Z,55.37
2019-01-22T05:55:35.872Z,52.37
2019-01-22T05:58:22.413Z,61.23
2019-01-22T06:00:57.276Z,51.97
2019-01-22T06:03:44.410Z,59.90
2019-01-22T06:06:18.869Z,48.93
2019-01-22T06:09:11.797Z,55.27
2019-01-22T06:11:50.076Z,50.67
2019-01-22T06:14:27.823Z,49.00
2019-01-22T06:17:05.305Z,45.00
2019-01-22T06:19:58.458Z,47.37
2019-01-22T06:22:35.737Z,53.70
2019-01-22T06:25:33.006Z,57.13
2019-01-22T06:28:08.005Z,70.70
2019-01-22T06:30:40.249Z,55.20
2019-01-22T06:33:12.783Z,53.13
2019-01-22T06:35:56.368Z,51.33
2019-01-22T06:38:34.335Z,58.50
2019-01-22T06:41:06.435Z,58.10
2019-01-22T06:43:55.871Z,55.43
2019-01-22T06:46:30.172Z,47.30
2019-01-22T06:49:24.384Z,43.73
2019-01-22T06:52:11.713Z,47.20
2019-01-22T06:54:43.849Z,49.53
2019-01-22T06:57:22.020Z,40.73
2019-01-22T06:59:59.778Z,45.83
2019-01-22T07:02:37.095Z,52.40
2019-01-22T07:05:12.045Z,45.47
2019-01-22T07:08:01.665Z,42.47
2019-01-22T07:10:42.459Z,46.57
2019-01-22T07:13:26.374Z,48.10
2019-01-22T07:16:04.617Z,41.13
2019-01-22T07:18:39.118Z,43.27
2019-01-22T07:21:26.648Z,43.03
2019-01-22T07:24:25.817Z,40.40
2019-01-22T07:27:00.594Z,45.17
2019-01-22T07:29:44.088Z,47.40
2019-01-22T07:32:24.810Z,42.20
2019-01-22T07:35:02.777Z,41.90
2019-01-22T07:37:37.138Z,44.00
2019-01-22T07:40:17.262Z,40.53
2019-01-22T07:42:51.715Z,40.13
2019-01-22T07:45:47.557Z,40.53
2019-01-22T07:48:19.473Z,41.33
2019-01-22T07:50:59.547Z,47.20
2019-01-22T07:53:40.380Z,40.80
2019-01-22T07:56:21.152Z,42.27
2019-01-22T07:58:55.852Z,43.00
2019-01-22T08:01:45.697Z,43.20
2019-01-22T08:04:33.891Z,45.57
2019-01-22T08:07:13.349Z,38.17
2019-01-22T08:10:19.623Z,44.60
2019-01-22T08:12:59.936Z,42.27
2019-01-22T08:15:52.744Z,40.70
2019-01-22T08:18:27.014Z,42.10
2019-01-22T08:21:07.538Z,39.20
2019-01-22T08:23:47.948Z,45.20
2019-01-22T08:26:22.297Z,40.97
2019-01-22T08:29:18.061Z,41.43
2019-01-22T08:31:53.305Z,39.47
2019-01-22T08:34:59.556Z,36.70
2019-01-22T08:37:55.155Z,36.73
2019-01-22T08:40:30.067Z,32.67
2019-01-22T08:43:25.420Z,39.90
2019-01-22T08:46:03.098Z,33.87
2019-01-22T08:48:51.123Z,36.63
2019-01-22T08:51:38.055Z,37.33
2019-01-22T08:54:12.475Z,41.33
2019-01-22T08:57:03.766Z,38.23
2019-01-22T08:59:47.935Z,44.73
2019-01-22T09:02:34.523Z,40.13
2019-01-22T09:05:09.525Z,41.27
2019-01-22T09:07:57.178Z,39.40
2019-01-22T09:10:34.233Z,42.57
2019-01-22T09:13:14.427Z,42.47
2019-01-22T09:16:19.081Z,35.70
2019-01-22T09:18:59.631Z,38.97
2019-01-22T09:21:54.881Z,41.23
2019-01-22T09:24:29.396Z,40.30
2019-01-22T09:27:06.785Z,42.73
2019-01-22T09:29:47.473Z,40.70
2019-01-22T09:32:37.640Z,46.33
2019-01-22T09:35:28.555Z,41.70
2019-01-22T09:37:57.924Z,42.60
2019-01-22T09:40:26.370Z,34.60
2019-01-22T09:42:54.841Z,37.00
2019-01-22T09:45:23.306Z,40.93
2019-01-22T09:47:52.013Z,39.10
2019-01-22T09:50:20.753Z,30.90
2019-01-22T09:52:49.207Z,33.30
2019-01-22T09:55:22.381Z,34.00
2019-01-22T09:57:48.310Z,32.97
2019-01-22T10:00:19.765Z,30.83
2019-01-22T10:02:48.751Z,32.20
2019-01-22T10:05:17.444Z,27.53
2019-01-22T10:07:46.085Z,28.10
2019-01-22T10:10:20.651Z,29.00
2019-01-22T10:12:49.359Z,30.37
2019-01-22T10:15:20.234Z,27.57
2019-01-22T10:17:49.049Z,27.20
2019-01-22T10:20:22.952Z,26.17
2019-01-22T10:22:52.412Z,26.20
2019-01-22T10:25:21.867Z,26.20
2019-01-22T10:27:50.557Z,28.57
2019-01-22T10:30:25.957Z,30.07
2019-01-22T10:32:55.059Z,26.60
2019-01-22T10:35:24.247Z,29.63
2019-01-22T10:37:53.276Z,34.53
2019-01-22T10:40:24.262Z,27.30
2019-01-22T10:42:53.358Z,26.20
2019-01-22T10:45:22.189Z,29.43
2019-01-22T10:47:50.950Z,32.53
2019-01-22T10:50:22.390Z,27.83
2019-01-22T10:52:51.270Z,29.60
2019-01-22T10:55:19.915Z,25.40
2019-01-22T10:57:48.837Z,33.93
2019-01-22T11:00:26.622Z,31.47
2019-01-22T11:02:55.586Z,35.90
2019-01-22T11:05:27.383Z,29.90
2019-01-22T11:07:56.238Z,33.70
2019-01-22T11:10:25.378Z,38.57
2019-01-22T11:12:54.043Z,29.67
2019-01-22T11:15:27.762Z,38.20
2019-01-22T11:17:53.665Z,30.47
2019-01-22T11:20:27.683Z,33.60
2019-01-22T11:22:56.770Z,26.60
2019-01-22T11:25:28.106Z,32.00
2019-01-22T11:27:56.872Z,24.73
2019-01-22T11:30:25.686Z,29.97
2019-01-22T11:32:54.961Z,48.63
2019-01-22T11:35:24.946Z,28.43
2019-01-22T11:37:54.086Z,36.27
2019-01-22T11:40:25.939Z,34.33
2019-01-22T11:42:54.649Z,35.53
2019-01-22T11:45:23.748Z,29.70
2019-01-22T11:47:52.855Z,36.80
2019-01-22T11:50:22.805Z,36.23
2019-01-22T11:52:51.871Z,32.30
2019-01-22T11:55:21.105Z,31.27
2019-01-22T11:57:50.100Z,32.13
2019-01-22T12:00:28.705Z,28.30
2019-01-22T12:02:57.487Z,29.50
2019-01-22T12:05:26.212Z,24.00
2019-01-22T12:07:54.872Z,26.63
2019-01-22T12:10:24.114Z,38.23
2019-01-22T12:12:53.052Z,28.63
2019-01-22T12:15:21.935Z,33.43
2019-01-22T12:17:50.675Z,29.57
2019-01-22T12:20:28.149Z,30.90
2019-01-22T12:22:57.529Z,34.33
2019-01-22T12:25:26.602Z,34.43
2019-01-22T12:27:55.689Z,30.27
2019-01-22T12:30:27.172Z,28.23
2019-01-22T12:32:55.898Z,42.00
2019-01-22T12:35:24.722Z,33.87
2019-01-22T12:37:53.989Z,39.27
2019-01-22T12:40:24.708Z,32.63
2019-01-22T12:42:53.950Z,46.00
2019-01-22T12:45:25.230Z,35.43
2019-01-22T12:47:54.608Z,42.07
2019-01-22T12:50:26.205Z,41.57
2019-01-22T12:52:55.039Z,34.00
2019-01-22T12:55:23.939Z,32.87
2019-01-22T12:57:52.517Z,35.83
2019-01-22T13:00:32.948Z,28.00
2019-01-22T13:03:01.582Z,33.23
2019-01-22T13:05:42.045Z,34.80
2019-01-22T13:08:11.224Z,36.63
2019-01-22T13:10:39.918Z,34.03
2019-01-22T13:13:08.916Z,32.23
2019-01-22T13:15:37.660Z,36.33
2019-01-22T13:18:06.270Z,32.00
2019-01-22T13:20:34.920Z,30.73
2019-01-22T13:23:03.615Z,30.70
2019-01-22T13:25:32.336Z,34.10
2019-01-22T13:28:00.995Z,31.53
2019-01-22T13:30:31.094Z,28.70
2019-01-22T13:33:00.375Z,32.87
2019-01-22T13:35:29.070Z,31.43
2019-01-22T13:37:57.855Z,35.70
2019-01-22T13:40:26.536Z,36.27
2019-01-22T13:42:55.265Z,36.07
2019-01-22T13:45:35.724Z,34.50
2019-01-22T13:48:07.097Z,31.20
2019-01-22T13:50:35.738Z,30.73
2019-01-22T13:53:04.634Z,30.17
2019-01-22T13:55:36.611Z,32.93
2019-01-22T13:58:06.605Z,34.00
2019-01-22T14:00:36.084Z,36.60
2019-01-22T14:03:06.170Z,34.27
2019-01-22T14:05:37.619Z,36.73
2019-01-22T14:08:06.331Z,41.13
2019-01-22T14:10:35.245Z,35.40
2019-01-22T14:13:04.125Z,33.27
2019-01-22T14:15:35.926Z,33.70
2019-01-22T14:18:05.255Z,40.47
2019-01-22T14:20:34.282Z,36.10
2019-01-22T14:23:03.076Z,39.10
2019-01-22T14:25:32.192Z,33.13
2019-01-22T14:28:01.075Z,30.33
2019-01-22T14:30:32.151Z,39.20
2019-01-22T14:33:00.712Z,34.57
2019-01-22T14:35:29.468Z,39.43
2019-01-22T14:37:58.213Z,38.87
2019-01-22T14:40:26.851Z,37.93
2019-01-22T14:42:55.545Z,34.30
2019-01-22T14:45:25.100Z,44.73
2019-01-22T14:47:53.801Z,31.83
2019-01-22T14:50:27.748Z,34.40
2019-01-22T14:52:56.470Z,38.60
2019-01-22T14:55:25.206Z,33.90
2019-01-22T14:57:53.734Z,40.40
2019-01-22T15:00:25.001Z,36.23
2019-01-22T15:02:54.582Z,35.07
2019-01-22T15:05:23.543Z,37.40
2019-01-22T15:07:52.127Z,36.10
2019-01-22T15:10:21.310Z,35.93
2019-01-22T15:12:52.657Z,38.30
2019-01-22T15:15:21.584Z,37.23
2019-01-22T15:17:50.407Z,36.73
2019-01-22T15:20:25.744Z,38.27
2019-01-22T15:22:54.773Z,34.97
2019-01-22T15:25:24.261Z,46.17
2019-01-22T15:27:53.063Z,40.33
2019-01-22T15:30:28.007Z,39.40
2019-01-22T15:32:56.780Z,41.87
2019-01-22T15:35:25.490Z,42.23
2019-01-22T15:37:54.512Z,36.47
2019-01-22T15:40:26.187Z,46.63
2019-01-22T15:42:54.822Z,38.77
2019-01-22T15:45:24.527Z,42.53
2019-01-22T15:47:53.274Z,47.63
2019-01-22T15:50:23.310Z,41.10
2019-01-22T15:52:52.342Z,40.50
2019-01-22T15:55:26.743Z,39.10
2019-01-22T15:57:55.775Z,41.17
2019-01-22T16:00:26.188Z,37.87
2019-01-22T16:02:55.018Z,38.37
2019-01-22T16:05:24.182Z,40.50
2019-01-22T16:07:53.185Z,44.33
2019-01-22T16:10:21.962Z,41.13
2019-01-22T16:12:51.351Z,40.83
2019-01-22T16:15:23.990Z,46.00
2019-01-22T16:17:53.947Z,44.53
2019-01-22T16:20:24.528Z,39.87
2019-01-22T16:22:53.216Z,39.23
2019-01-22T16:25:23.163Z,41.87
2019-01-22T16:27:52.289Z,44.13
2019-01-22T16:30:24.464Z,42.70
2019-01-22T16:32:53.147Z,44.87
2019-01-22T16:35:23.353Z,42.77
2019-01-22T16:37:52.039Z,46.43
2019-01-22T16:40:20.733Z,42.07
2019-01-22T16:42:49.862Z,46.97
2019-01-22T16:45:27.383Z,40.17
2019-01-22T16:47:56.094Z,50.17
2019-01-22T16:50:25.195Z,48.10
2019-01-22T16:52:53.904Z,42.40
2019-01-22T16:55:25.906Z,47.40
2019-01-22T16:57:54.596Z,50.73
2019-01-22T17:00:26.096Z,46.67
2019-01-22T17:02:55.176Z,46.03
2019-01-22T17:05:23.932Z,42.40
2019-01-22T17:07:52.928Z,45.07
2019-01-22T17:10:21.827Z,40.60
2019-01-22T17:12:50.772Z,46.57
2019-01-22T17:15:19.413Z,52.03
2019-01-22T17:17:48.231Z,52.33
2019-01-22T17:20:28.963Z,43.90
2019-01-22T17:23:02.033Z,44.53
2019-01-22T17:25:28.575Z,43.60
2019-01-22T17:27:57.203Z,44.90
2019-01-22T17:30:26.091Z,45.33
2019-01-22T17:33:02.788Z,47.77
2019-01-22T17:35:33.060Z,46.93
2019-01-22T17:38:03.590Z,49.57
2019-01-22T17:40:32.536Z,48.13
2019-01-22T17:43:01.206Z,51.40
2019-01-22T17:45:29.846Z,56.80
2019-01-22T17:47:58.368Z,48.87
2019-01-22T17:50:27.324Z,54.33
2019-01-22T17:52:56.118Z,47.87
2019-01-22T17:55:24.634Z,54.97
2019-01-22T17:57:53.174Z,42.10
2019-01-22T18:00:23.260Z,46.57
2019-01-22T18:02:51.713Z,47.63
2019-01-22T18:05:20.768Z,46.33
2019-01-22T18:07:49.454Z,44.10
2019-01-22T18:10:22.808Z,44.67
2019-01-22T18:12:51.338Z,49.13
2019-01-22T18:15:19.846Z,52.13
2019-01-22T18:17:48.578Z,43.57
2019-01-22T18:20:19.980Z,46.57
2019-01-22T18:22:48.441Z,50.20
2019-01-22T18:25:16.886Z,50.60
2019-01-22T18:27:45.343Z,54.20
2019-01-22T18:30:16.479Z,47.23
2019-01-22T18:32:45.488Z,49.30
2019-01-22T18:35:16.931Z,48.47
2019-01-22T18:37:45.428Z,46.17
2019-01-22T18:40:15.123Z,47.73
2019-01-22T18:42:43.839Z,56.23
2019-01-22T18:45:17.477Z,61.83
2019-01-22T18:47:45.974Z,52.20
2019-01-22T18:50:17.787Z,48.57
2019-01-22T18:52:46.242Z,50.03
2019-01-22T18:55:14.955Z,48.83
2019-01-22T18:57:43.418Z,50.50
2019-01-22T19:00:18.004Z,52.53
2019-01-22T19:02:46.452Z,44.63
2019-01-22T19:05:15.038Z,59.10
2019-01-22T19:07:43.529Z,57.03
2019-01-22T19:10:20.685Z,62.73
2019-01-22T19:12:49.207Z,45.13
2019-01-22T19:15:18.381Z,55.27
2019-01-22T19:17:47.023Z,56.27
2019-01-22T19:20:15.659Z,64.17
2019-01-22T19:22:44.116Z,59.30
2019-01-22T19:25:15.908Z,65.00
2019-01-22T19:27:44.855Z,60.33
2019-01-22T19:30:21.606Z,60.90
2019-01-22T19:32:50.360Z,59.70
2019-01-22T19:35:19.312Z,65.80
2019-01-22T19:37:47.818Z,63.50
2019-01-22T19:40:18.123Z,64.83
2019-01-22T19:42:46.979Z,52.47
2019-01-22T19:45:18.149Z,71.70
2019-01-22T19:47:47.586Z,60.43
2019-01-22T19:50:17.188Z,70.73
2019-01-22T19:52:46.030Z,62.63
2019-01-22T19:55:14.721Z,58.73
2019-01-22T19:57:43.443Z,60.27
2019-01-22T20:00:24.117Z,70.10
2019-01-22T20:02:52.646Z,53.03
2019-01-22T20:05:21.330Z,66.57
2019-01-22T20:07:49.847Z,56.70
2019-01-22T20:10:18.906Z,62.57
2019-01-22T20:12:47.499Z,58.53
2019-01-22T20:15:18.291Z,61.20
2019-01-22T20:17:46.718Z,61.47
2019-01-22T20:20:21.548Z,52.63
2019-01-22T20:22:50.240Z,66.97
2019-01-22T20:25:19.731Z,63.73
2019-01-22T20:27:48.696Z,51.90
2019-01-22T20:30:31.878Z,60.40
2019-01-22T20:33:00.326Z,59.43
2019-01-22T20:35:28.855Z,66.13
2019-01-22T20:37:57.631Z,58.40
2019-01-22T20:40:26.187Z,62.17
2019-01-22T20:42:54.726Z,59.87
2019-01-22T20:45:28.483Z,69.03
2019-01-22T20:47:56.939Z,59.27
2019-01-22T20:50:25.530Z,54.40
2019-01-22T20:52:54.348Z,60.73
2019-01-22T20:55:24.183Z,63.57
2019-01-22T20:57:55.141Z,52.73
2019-01-22T21:00:24.932Z,51.37
2019-01-22T21:02:54.288Z,63.43
2019-01-22T21:05:27.872Z,60.00
2019-01-22T21:07:56.944Z,66.57
2019-01-22T21:10:30.136Z,62.30
2019-01-22T21:12:58.986Z,64.60
2019-01-22T21:15:28.140Z,70.17
2019-01-22T21:17:56.590Z,68.30
2019-01-22T21:20:25.408Z,67.20
2019-01-22T21:22:54.477Z,62.10
2019-01-22T21:25:24.630Z,71.80
2019-01-22T21:27:53.186Z,66.27
2019-01-22T21:30:27.528Z,58.63
2019-01-22T21:32:56.254Z,64.97
2019-01-22T21:35:24.826Z,59.10
2019-01-22T21:37:53.577Z,67.43
2019-01-22T21:40:22.445Z,64.87
2019-01-22T21:42:51.059Z,65.97
2019-01-22T21:45:28.315Z,58.93
2019-01-22T21:47:56.753Z,55.27
2019-01-22T21:50:25.527Z,62.30
2019-01-22T21:52:54.072Z,65.50
2019-01-22T21:55:24.033Z,55.00
2019-01-22T21:57:52.770Z,61.07
2019-01-22T22:00:23.639Z,64.00
2019-01-22T22:02:52.787Z,59.33
2019-01-22T22:05:23.793Z,68.53
2019-01-22T22:07:52.925Z,64.30
2019-01-22T22:10:22.383Z,64.30
2019-01-22T22:12:51.186Z,57.00
2019-01-22T22:15:22.522Z,53.57
2019-01-22T22:17:51.046Z,63.97
2019-01-22T22:20:20.195Z,59.83
2019-01-22T22:22:48.706Z,59.37
2019-01-22T22:25:19.351Z,59.73
2019-01-22T22:27:47.992Z,61.77
2019-01-22T22:30:25.574Z,61.97
2019-01-22T22:32:54.724Z,63.00
2019-01-22T22:35:23.942Z,60.27
2019-01-22T22:37:52.733Z,57.27
2019-01-22T22:40:22.758Z,65.87
2019-01-22T22:42:51.623Z,60.60
2019-01-22T22:45:24.319Z,65.20
2019-01-22T22:47:53.762Z,55.67
2019-01-22T22:50:27.535Z,66.10
2019-01-22T22:52:56.081Z,65.10
2019-01-22T22:55:24.876Z,64.90
2019-01-22T22:57:53.334Z,57.90
2019-01-22T23:00:33.820Z,65.07
2019-01-22T23:03:02.986Z,64.93
2019-01-22T23:05:31.588Z,64.00
2019-01-22T23:08:00.309Z,62.10
2019-01-22T23:10:29.167Z,63.90
2019-01-22T23:12:57.624Z,62.50
2019-01-22T23:15:26.066Z,61.30
2019-01-22T23:17:54.587Z,64.53
2019-01-22T23:20:23.017Z,67.17
2019-01-22T23:22:51.799Z,65.53
2019-01-22T23:25:20.765Z,59.70
2019-01-22T23:27:49.569Z,67.33
2019-01-22T23:30:18.443Z,58.60
2019-01-22T23:32:47.045Z,57.63
2019-01-22T23:35:15.771Z,72.97
2019-01-22T23:37:44.671Z,68.33
2019-01-22T23:40:16.923Z,67.33
2019-01-22T23:42:45.394Z,70.17
2019-01-22T23:45:14.567Z,60.57
2019-01-22T23:47:43.074Z,64.67
2019-01-22T23:50:13.765Z,55.83
2019-01-22T23:52:42.274Z,67.53
2019-01-22T23:55:11.369Z,64.90
2019-01-22T23:57:39.922Z,65.00
